sensor_id;sensor_type;location;lat;lon;timestamp;pressure;altitude;pressure_sealevel;temperature;humidity
13348;BME280;6743;49.934;9.138;2023-07-20T00:00:10;100163.38;;;19.97;100.00
13348;BME280;6743;49.934;9.138;2023-07-20T00:02:39;100173.44;;;20.02;100.00
13348;BME280;6743;49.934;9.138;2023-07-20T00:05:06;100179.06;;;20.00;100.00
13348;BME280;6743;49.934;9.138;2023-07-20T00:07:32;100158.81;;;19.98;100.00
13348;BME280;6743;49.934;9.138;2023-07-20T00:09:58;100175.63;;;19.93;100.00
13348;BME280;6743;49.934;9.138;2023-07-20T00:12:24;100183.81;;;19.87;100.00
13348;BME280;6743;49.934;9.138;2023-07-20T00:14:50;100179.31;;;19.81;100.00
13348;BME280;6743;49.934;9.138;2023-07-20T00:17:19;100175.22;;;19.78;100.00
13348;BME280;6743;49.934;9.138;2023-07-20T00:19:45;100173.81;;;19.76;100.00
13348;BME280;6743;49.934;9.138;2023-07-20T00:22:11;100174.03;;;19.74;100.00
13348;BME280;6743;49.934;9.138;2023-07-20T00:24:38;100173.44;;;19.72;100.00
13348;BME280;6743;49.934;9.138;2023-07-20T00:27:04;100169.16;;;19.64;100.00
13348;BME280;6743;49.934;9.138;2023-07-20T00:29:30;100176.59;;;19.69;100.00
13348;BME280;6743;49.934;9.138;2023-07-20T00:31:57;100183.84;;;19.69;100.00
13348;BME280;6743;49.934;9.138;2023-07-20T00:34:24;100184.28;;;19.65;100.00
13348;BME280;6743;49.934;9.138;2023-07-20T00:36:51;100189.53;;;19.60;100.00
13348;BME280;6743;49.934;9.138;2023-07-20T00:39:17;100184.13;;;19.60;100.00
13348;BME280;6743;49.934;9.138;2023-07-20T00:41:43;100180.00;;;19.58;100.00
13348;BME280;6743;49.934;9.138;2023-07-20T00:44:09;100188.91;;;19.58;100.00
13348;BME280;6743;49.934;9.138;2023-07-20T00:46:35;100188.91;;;19.58;100.00
13348;BME280;6743;49.934;9.138;2023-07-20T00:49:01;100190.22;;;19.56;100.00
13348;BME280;6743;49.934;9.138;2023-07-20T00:51:27;100189.59;;;19.54;100.00
13348;BME280;6743;49.934;9.138;2023-07-20T00:53:54;100194.38;;;19.52;100.00
13348;BME280;6743;49.934;9.138;2023-07-20T00:56:20;100192.97;;;19.49;100.00
13348;BME280;6743;49.934;9.138;2023-07-20T00:58:47;100198.34;;;19.49;100.00
13348;BME280;6743;49.934;9.138;2023-07-20T01:01:13;100195.88;;;19.48;100.00
13348;BME280;6743;49.934;9.138;2023-07-20T01:03:39;100192.78;;;19.44;100.00
13348;BME280;6743;49.934;9.138;2023-07-20T01:06:16;100196.97;;;19.40;100.00
13348;BME280;6743;49.934;9.138;2023-07-20T01:08:49;100200.69;;;19.39;100.00
13348;BME280;6743;49.934;9.138;2023-07-20T01:11:24;100200.34;;;19.36;100.00
13348;BME280;6743;49.934;9.138;2023-07-20T01:13:53;100203.03;;;19.36;100.00
13348;BME280;6743;49.934;9.138;2023-07-20T01:16:19;100201.81;;;19.32;100.00
13348;BME280;6743;49.934;9.138;2023-07-20T01:18:44;100202.84;;;19.31;100.00
13348;BME280;6743;49.934;9.138;2023-07-20T01:21:16;100200.63;;;19.27;100.00
13348;BME280;6743;49.934;9.138;2023-07-20T01:27:11;100197.53;;;19.24;100.00
13348;BME280;6743;49.934;9.138;2023-07-20T01:30:08;100192.44;;;19.16;100.00
13348;BME280;6743;49.934;9.138;2023-07-20T01:32:40;100193.50;;;19.15;100.00
13348;BME280;6743;49.934;9.138;2023-07-20T01:35:10;100195.00;;;19.11;100.00
13348;BME280;6743;49.934;9.138;2023-07-20T01:37:41;100195.19;;;19.09;100.00
13348;BME280;6743;49.934;9.138;2023-07-20T01:40:09;100204.56;;;19.07;100.00
13348;BME280;6743;49.934;9.138;2023-07-20T01:42:35;100199.81;;;19.02;100.00
13348;BME280;6743;49.934;9.138;2023-07-20T01:45:01;100186.75;;;18.87;100.00
13348;BME280;6743;49.934;9.138;2023-07-20T01:47:27;100198.41;;;19.00;100.00
13348;BME280;6743;49.934;9.138;2023-07-20T01:49:54;100202.34;;;18.97;100.00
13348;BME280;6743;49.934;9.138;2023-07-20T01:52:20;100205.88;;;18.98;100.00
13348;BME280;6743;49.934;9.138;2023-07-20T01:54:46;100197.44;;;18.94;100.00
13348;BME280;6743;49.934;9.138;2023-07-20T01:57:12;100201.59;;;18.90;100.00
13348;BME280;6743;49.934;9.138;2023-07-20T01:59:38;100199.72;;;18.91;100.00
13348;BME280;6743;49.934;9.138;2023-07-20T02:02:04;100196.06;;;18.85;100.00
13348;BME280;6743;49.934;9.138;2023-07-20T02:04:30;100197.53;;;18.81;100.00
13348;BME280;6743;49.934;9.138;2023-07-20T02:06:57;100207.47;;;18.80;100.00
13348;BME280;6743;49.934;9.138;2023-07-20T02:09:23;100210.16;;;18.80;100.00
13348;BME280;6743;49.934;9.138;2023-07-20T02:11:48;100210.59;;;18.77;100.00
13348;BME280;6743;49.934;9.138;2023-07-20T02:14:15;100205.44;;;18.76;100.00
13348;BME280;6743;49.934;9.138;2023-07-20T02:16:41;100193.09;;;18.68;100.00
13348;BME280;6743;49.934;9.138;2023-07-20T02:19:07;100204.22;;;18.72;100.00
13348;BME280;6743;49.934;9.138;2023-07-20T02:21:33;100183.00;;;18.64;100.00
13348;BME280;6743;49.934;9.138;2023-07-20T02:24:00;100199.47;;;18.74;100.00
13348;BME280;6743;49.934;9.138;2023-07-20T02:26:25;100197.22;;;18.71;100.00
13348;BME280;6743;49.934;9.138;2023-07-20T02:28:51;100202.59;;;18.71;100.00
13348;BME280;6743;49.934;9.138;2023-07-20T02:31:17;100201.16;;;18.68;100.00
13348;BME280;6743;49.934;9.138;2023-07-20T02:33:43;100201.38;;;18.67;100.00
13348;BME280;6743;49.934;9.138;2023-07-20T02:36:09;100211.31;;;18.66;100.00
13348;BME280;6743;49.934;9.138;2023-07-20T02:38:35;100212.94;;;18.67;100.00
13348;BME280;6743;49.934;9.138;2023-07-20T02:41:02;100212.34;;;18.65;100.00
13348;BME280;6743;49.934;9.138;2023-07-20T02:43:28;100215.47;;;18.62;100.00
13348;BME280;6743;49.934;9.138;2023-07-20T02:45:54;100212.41;;;18.59;100.00
13348;BME280;6743;49.934;9.138;2023-07-20T02:48:20;100206.00;;;18.60;100.00
13348;BME280;6743;49.934;9.138;2023-07-20T02:50:46;100212.16;;;18.60;100.00
13348;BME280;6743;49.934;9.138;2023-07-20T02:53:12;100213.66;;;18.56;100.00
13348;BME280;6743;49.934;9.138;2023-07-20T02:55:38;100220.03;;;18.55;100.00
13348;BME280;6743;49.934;9.138;2023-07-20T02:58:04;100218.19;;;18.56;100.00
13348;BME280;6743;49.934;9.138;2023-07-20T03:00:30;100205.00;;;18.47;100.00
13348;BME280;6743;49.934;9.138;2023-07-20T03:02:56;100218.34;;;18.61;100.00
13348;BME280;6743;49.934;9.138;2023-07-20T03:05:22;100223.50;;;18.62;100.00
13348;BME280;6743;49.934;9.138;2023-07-20T03:07:50;100222.47;;;18.63;100.00
13348;BME280;6743;49.934;9.138;2023-07-20T03:10:17;100220.19;;;18.67;100.00
13348;BME280;6743;49.934;9.138;2023-07-20T03:12:43;100215.41;;;18.69;100.00
13348;BME280;6743;49.934;9.138;2023-07-20T03:15:10;100219.75;;;18.70;100.00
13348;BME280;6743;49.934;9.138;2023-07-20T03:17:36;100216.84;;;18.71;100.00
13348;BME280;6743;49.934;9.138;2023-07-20T03:20:03;100214.97;;;18.72;100.00
13348;BME280;6743;49.934;9.138;2023-07-20T03:22:29;100218.50;;;18.72;100.00
13348;BME280;6743;49.934;9.138;2023-07-20T03:24:55;100226.56;;;18.72;100.00
13348;BME280;6743;49.934;9.138;2023-07-20T03:27:21;100226.97;;;18.69;100.00
13348;BME280;6743;49.934;9.138;2023-07-20T03:29:46;100226.38;;;18.67;100.00
13348;BME280;6743;49.934;9.138;2023-07-20T03:32:13;100221.22;;;18.66;100.00
13348;BME280;6743;49.934;9.138;2023-07-20T03:34:40;100203.53;;;18.52;100.00
13348;BME280;6743;49.934;9.138;2023-07-20T03:37:06;100223.31;;;18.64;100.00
13348;BME280;6743;49.934;9.138;2023-07-20T03:39:32;100229.94;;;18.61;100.00
13348;BME280;6743;49.934;9.138;2023-07-20T03:41:58;100223.16;;;18.59;100.00
13348;BME280;6743;49.934;9.138;2023-07-20T03:44:24;100224.81;;;18.53;100.00
13348;BME280;6743;49.934;9.138;2023-07-20T03:46:50;100224.41;;;18.49;100.00
13348;BME280;6743;49.934;9.138;2023-07-20T03:49:16;100229.78;;;18.49;100.00
13348;BME280;6743;49.934;9.138;2023-07-20T03:51:43;100224.81;;;18.46;100.00
13348;BME280;6743;49.934;9.138;2023-07-20T03:54:09;100234.16;;;18.44;100.00
13348;BME280;6743;49.934;9.138;2023-07-20T03:56:35;100236.87;;;18.37;100.00
13348;BME280;6743;49.934;9.138;2023-07-20T03:59:01;100239.41;;;18.32;100.00
13348;BME280;6743;49.934;9.138;2023-07-20T04:01:27;100238.62;;;18.25;100.00
13348;BME280;6743;49.934;9.138;2023-07-20T04:03:53;100238.88;;;18.17;100.00
13348;BME280;6743;49.934;9.138;2023-07-20T04:06:20;100243.25;;;18.12;100.00
13348;BME280;6743;49.934;9.138;2023-07-20T04:08:46;100245.94;;;18.05;100.00
13348;BME280;6743;49.934;9.138;2023-07-20T04:11:12;100243.25;;;18.05;100.00
13348;BME280;6743;49.934;9.138;2023-07-20T04:13:39;100234.22;;;17.93;100.00
13348;BME280;6743;49.934;9.138;2023-07-20T04:16:05;100251.56;;;17.97;100.00
13348;BME280;6743;49.934;9.138;2023-07-20T04:18:31;100248.25;;;17.95;100.00
13348;BME280;6743;49.934;9.138;2023-07-20T04:20:57;100250.53;;;17.91;100.00
13348;BME280;6743;49.934;9.138;2023-07-20T04:23:23;100257.16;;;17.89;100.00
13348;BME280;6743;49.934;9.138;2023-07-20T04:25:49;100252.62;;;17.89;100.00
13348;BME280;6743;49.934;9.138;2023-07-20T04:28:15;100253.03;;;17.86;100.00
13348;BME280;6743;49.934;9.138;2023-07-20T04:30:42;100253.69;;;17.82;100.00
13348;BME280;6743;49.934;9.138;2023-07-20T04:33:08;100239.66;;;17.73;100.00
13348;BME280;6743;49.934;9.138;2023-07-20T04:35:48;100246.66;;;17.81;100.00
13348;BME280;6743;49.934;9.138;2023-07-20T04:38:15;100232.06;;;17.70;100.00
13348;BME280;6743;49.934;9.138;2023-07-20T04:40:44;100247.72;;;17.73;100.00
13348;BME280;6743;49.934;9.138;2023-07-20T04:43:10;100248.16;;;17.70;100.00
13348;BME280;6743;49.934;9.138;2023-07-20T04:45:36;100252.44;;;17.71;100.00
13348;BME280;6743;49.934;9.138;2023-07-20T04:48:02;100254.94;;;17.73;100.00
13348;BME280;6743;49.934;9.138;2023-07-20T04:50:28;100248.13;;;17.63;100.00
13348;BME280;6743;49.934;9.138;2023-07-20T04:52:54;100260.13;;;17.67;100.00
13348;BME280;6743;49.934;9.138;2023-07-20T04:55:20;100250.00;;;17.69;100.00
13348;BME280;6743;49.934;9.138;2023-07-20T04:57:46;100249.78;;;17.71;100.00
13348;BME280;6743;49.934;9.138;2023-07-20T05:00:13;100246.69;;;17.74;100.00
13348;BME280;6743;49.934;9.138;2023-07-20T05:02:39;100246.25;;;17.70;100.00
13348;BME280;6743;49.934;9.138;2023-07-20T05:05:06;100253.91;;;17.74;100.00
13348;BME280;6743;49.934;9.138;2023-07-20T05:07:32;100251.00;;;17.75;100.00
13348;BME280;6743;49.934;9.138;2023-07-20T05:09:58;100252.44;;;17.78;100.00
13348;BME280;6743;49.934;9.138;2023-07-20T05:12:24;100252.66;;;17.76;100.00
13348;BME280;6743;49.934;9.138;2023-07-20T05:14:51;100257.78;;;17.84;100.00
13348;BME280;6743;49.934;9.138;2023-07-20T05:17:18;100259.03;;;17.88;100.00
13348;BME280;6743;49.934;9.138;2023-07-20T05:19:43;100262.91;;;17.92;100.00
13348;BME280;6743;49.934;9.138;2023-07-20T05:22:09;100258.56;;;17.98;100.00
13348;BME280;6743;49.934;9.138;2023-07-20T05:24:36;100252.94;;;18.06;100.00
13348;BME280;6743;49.934;9.138;2023-07-20T05:27:02;100259.72;;;18.15;100.00
13348;BME280;6743;49.934;9.138;2023-07-20T05:29:28;100256.19;;;18.21;100.00
13348;BME280;6743;49.934;9.138;2023-07-20T05:31:55;100253.25;;;18.29;100.00
13348;BME280;6743;49.934;9.138;2023-07-20T05:34:21;100250.31;;;18.37;100.00
13348;BME280;6743;49.934;9.138;2023-07-20T05:36:47;100253.16;;;18.42;100.00
13348;BME280;6743;49.934;9.138;2023-07-20T05:39:13;100246.56;;;18.45;100.00
13348;BME280;6743;49.934;9.138;2023-07-20T05:41:39;100256.22;;;18.53;100.00
13348;BME280;6743;49.934;9.138;2023-07-20T05:44:09;100262.19;;;18.55;100.00
13348;BME280;6743;49.934;9.138;2023-07-20T05:46:35;100249.41;;;18.50;100.00
13348;BME280;6743;49.934;9.138;2023-07-20T05:49:02;100268.38;;;18.62;100.00
13348;BME280;6743;49.934;9.138;2023-07-20T05:51:27;100260.72;;;18.65;100.00
13348;BME280;6743;49.934;9.138;2023-07-20T05:53:53;100262.53;;;18.71;100.00
13348;BME280;6743;49.934;9.138;2023-07-20T05:56:19;100265.16;;;18.78;100.00
13348;BME280;6743;49.934;9.138;2023-07-20T05:58:45;100265.94;;;18.85;100.00
13348;BME280;6743;49.934;9.138;2023-07-20T06:01:11;100270.22;;;18.93;100.00
13348;BME280;6743;49.934;9.138;2023-07-20T06:03:37;100272.03;;;18.99;100.00
13348;BME280;6743;49.934;9.138;2023-07-20T06:06:04;100274.06;;;19.03;100.00
13348;BME280;6743;49.934;9.138;2023-07-20T06:08:31;100269.50;;;19.04;100.00
13348;BME280;6743;49.934;9.138;2023-07-20T06:10:57;100274.69;;;19.05;100.00
13348;BME280;6743;49.934;9.138;2023-07-20T06:13:23;100275.28;;;19.07;100.00
13348;BME280;6743;49.934;9.138;2023-07-20T06:15:49;100282.69;;;19.12;100.00
13348;BME280;6743;49.934;9.138;2023-07-20T06:18:15;100287.63;;;19.15;100.00
13348;BME280;6743;49.934;9.138;2023-07-20T06:20:41;100296.28;;;19.17;100.00
13348;BME280;6743;49.934;9.138;2023-07-20T06:23:08;100292.34;;;19.19;100.00
13348;BME280;6743;49.934;9.138;2023-07-20T06:25:34;100302.44;;;19.24;100.00
13348;BME280;6743;49.934;9.138;2023-07-20T06:28:00;100292.50;;;19.24;100.00
13348;BME280;6743;49.934;9.138;2023-07-20T06:30:26;100287.34;;;19.23;100.00
13348;BME280;6743;49.934;9.138;2023-07-20T06:32:52;100292.28;;;19.26;100.00
13348;BME280;6743;49.934;9.138;2023-07-20T06:35:18;100294.75;;;19.27;100.00
13348;BME280;6743;49.934;9.138;2023-07-20T06:37:44;100294.75;;;19.27;100.00
13348;BME280;6743;49.934;9.138;2023-07-20T06:40:12;100283.06;;;19.15;100.00
13348;BME280;6743;49.934;9.138;2023-07-20T06:42:38;100291.37;;;19.14;100.00
13348;BME280;6743;49.934;9.138;2023-07-20T06:45:04;100294.28;;;19.12;100.00
13348;BME280;6743;49.934;9.138;2023-07-20T06:47:30;100292.19;;;19.14;100.00
13348;BME280;6743;49.934;9.138;2023-07-20T06:49:56;100291.53;;;19.19;100.00
13348;BME280;6743;49.934;9.138;2023-07-20T06:52:22;100296.91;;;19.19;100.00
13348;BME280;6743;49.934;9.138;2023-07-20T06:54:48;100302.44;;;19.24;100.00
13348;BME280;6743;49.934;9.138;2023-07-20T06:57:15;100303.25;;;19.24;100.00
13348;BME280;6743;49.934;9.138;2023-07-20T06:59:41;100304.91;;;19.25;100.00
13348;BME280;6743;49.934;9.138;2023-07-20T07:02:07;100285.53;;;19.17;100.00
13348;BME280;6743;49.934;9.138;2023-07-20T07:04:33;100300.66;;;19.36;100.00
13348;BME280;6743;49.934;9.138;2023-07-20T07:06:59;100300.63;;;19.43;100.00
13348;BME280;6743;49.934;9.138;2023-07-20T07:09:25;100297.66;;;19.51;100.00
13348;BME280;6743;49.934;9.138;2023-07-20T07:11:51;100305.91;;;19.56;100.00
13348;BME280;6743;49.934;9.138;2023-07-20T07:14:20;100305.66;;;19.57;100.00
13348;BME280;6743;49.934;9.138;2023-07-20T07:16:46;100309.19;;;19.58;100.00
13348;BME280;6743;49.934;9.138;2023-07-20T07:19:13;100303.38;;;19.61;100.00
13348;BME280;6743;49.934;9.138;2023-07-20T07:21:39;100297.91;;;19.67;100.00
13348;BME280;6743;49.934;9.138;2023-07-20T07:24:06;100300.31;;;19.76;100.00
13348;BME280;6743;49.934;9.138;2023-07-20T07:26:33;100304.00;;;19.81;100.00
13348;BME280;6743;49.934;9.138;2023-07-20T07:28:59;100309.28;;;19.88;100.00
13348;BME280;6743;49.934;9.138;2023-07-20T07:31:25;100312.41;;;19.85;100.00
13348;BME280;6743;49.934;9.138;2023-07-20T07:33:51;100316.94;;;19.91;100.00
13348;BME280;6743;49.934;9.138;2023-07-20T07:36:17;100309.00;;;19.96;100.00
13348;BME280;6743;49.934;9.138;2023-07-20T07:38:43;100317.84;;;20.03;100.00
13348;BME280;6743;49.934;9.138;2023-07-20T07:41:09;100308.72;;;20.04;100.00
13348;BME280;6743;49.934;9.138;2023-07-20T07:43:35;100309.28;;;20.06;100.00
13348;BME280;6743;49.934;9.138;2023-07-20T07:46:01;100308.63;;;20.11;100.00
13348;BME280;6743;49.934;9.138;2023-07-20T07:48:28;100315.34;;;20.01;100.00
13348;BME280;6743;49.934;9.138;2023-07-20T07:50:56;100314.75;;;19.99;100.00
13348;BME280;6743;49.934;9.138;2023-07-20T07:53:23;100314.38;;;19.96;100.00
13348;BME280;6743;49.934;9.138;2023-07-20T07:55:51;100319.78;;;19.96;100.00
13348;BME280;6743;49.934;9.138;2023-07-20T07:58:17;100311.69;;;19.96;100.00
13348;BME280;6743;49.934;9.138;2023-07-20T08:00:43;100321.56;;;20.02;100.00
13348;BME280;6743;49.934;9.138;2023-07-20T08:03:09;100322.53;;;20.08;100.00
13348;BME280;6743;49.934;9.138;2023-07-20T08:05:36;100310.84;;;20.14;100.00
13348;BME280;6743;49.934;9.138;2023-07-20T08:08:02;100313.84;;;20.24;100.00
13348;BME280;6743;49.934;9.138;2023-07-20T08:10:29;100319.75;;;20.32;100.00
13348;BME280;6743;49.934;9.138;2023-07-20T08:12:55;100326.56;;;20.35;100.00
13348;BME280;6743;49.934;9.138;2023-07-20T08:15:21;100325.91;;;20.39;100.00
13348;BME280;6743;49.934;9.138;2023-07-20T08:17:47;100322.84;;;20.36;100.00
13348;BME280;6743;49.934;9.138;2023-07-20T08:20:14;100316.47;;;20.30;100.00
13348;BME280;6743;49.934;9.138;2023-07-20T08:22:42;100312.13;;;20.29;100.00
13348;BME280;6743;49.934;9.138;2023-07-20T08:25:09;100306.94;;;20.28;100.00
13348;BME280;6743;49.934;9.138;2023-07-20T08:27:35;100306.94;;;20.28;100.00
13348;BME280;6743;49.934;9.138;2023-07-20T08:30:01;100309.62;;;20.28;100.00
13348;BME280;6743;49.934;9.138;2023-07-20T08:32:27;100309.62;;;20.28;100.00
13348;BME280;6743;49.934;9.138;2023-07-20T08:34:53;100310.69;;;20.27;100.00
13348;BME280;6743;49.934;9.138;2023-07-20T08:37:19;100307.56;;;20.30;100.00
13348;BME280;6743;49.934;9.138;2023-07-20T08:39:46;100309.97;;;20.38;100.00
13348;BME280;6743;49.934;9.138;2023-07-20T08:42:14;100307.63;;;20.41;100.00
13348;BME280;6743;49.934;9.138;2023-07-20T08:44:41;100306.81;;;20.41;100.00
13348;BME280;6743;49.934;9.138;2023-07-20T08:47:08;100308.13;;;20.50;100.00
13348;BME280;6743;49.934;9.138;2023-07-20T08:49:35;100297.87;;;20.59;100.00
13348;BME280;6743;49.934;9.138;2023-07-20T08:52:01;100304.22;;;20.64;100.00
13348;BME280;6743;49.934;9.138;2023-07-20T08:54:30;100305.03;;;20.65;100.00
13348;BME280;6743;49.934;9.138;2023-07-20T08:57:01;100310.56;;;20.70;100.00
13348;BME280;6743;49.934;9.138;2023-07-20T08:59:29;100300.06;;;20.80;100.00
13348;BME280;6743;49.934;9.138;2023-07-20T09:01:56;100305.13;;;20.88;100.00
13348;BME280;6743;49.934;9.138;2023-07-20T09:04:23;100312.41;;;20.99;100.00
13348;BME280;6743;49.934;9.138;2023-07-20T09:06:50;100308.44;;;21.02;100.00
13348;BME280;6743;49.934;9.138;2023-07-20T09:09:16;100306.19;;;20.99;100.00
13348;BME280;6743;49.934;9.138;2023-07-20T09:11:42;100312.50;;;20.93;100.00
13348;BME280;6743;49.934;9.138;2023-07-20T09:14:10;100308.59;;;20.89;100.00
13348;BME280;6743;49.934;9.138;2023-07-20T09:16:47;100288.78;;;20.83;100.00
13348;BME280;6743;49.934;9.138;2023-07-20T09:19:14;100308.66;;;21.00;100.00
13348;BME280;6743;49.934;9.138;2023-07-20T09:21:40;100294.56;;;21.10;100.00
13348;BME280;6743;49.934;9.138;2023-07-20T09:24:06;100290.16;;;21.15;100.00
13348;BME280;6743;49.934;9.138;2023-07-20T09:26:40;100299.22;;;21.21;100.00
13348;BME280;6743;49.934;9.138;2023-07-20T09:29:07;100300.94;;;21.15;100.00
13348;BME280;6743;49.934;9.138;2023-07-20T09:31:34;100305.50;;;21.15;100.00
13348;BME280;6743;49.934;9.138;2023-07-20T09:34:00;100311.25;;;21.07;100.00
13348;BME280;6743;49.934;9.138;2023-07-20T09:36:26;100318.63;;;21.00;100.00
13348;BME280;6743;49.934;9.138;2023-07-20T09:38:55;100309.22;;;20.91;100.00
13348;BME280;6743;49.934;9.138;2023-07-20T09:41:21;100303.00;;;20.90;100.00
13348;BME280;6743;49.934;9.138;2023-07-20T09:43:47;100285.63;;;20.86;100.00
13348;BME280;6743;49.934;9.138;2023-07-20T09:46:15;100298.69;;;21.01;100.00
13348;BME280;6743;49.934;9.138;2023-07-20T09:48:51;100304.19;;;21.06;100.00
13348;BME280;6743;49.934;9.138;2023-07-20T09:51:17;100292.38;;;21.07;100.00
13348;BME280;6743;49.934;9.138;2023-07-20T09:53:47;100292.41;;;21.18;100.00
13348;BME280;6743;49.934;9.138;2023-07-20T09:56:15;100285.84;;;21.26;100.00
13348;BME280;6743;49.934;9.138;2023-07-20T09:58:43;100288.78;;;21.36;100.00
13348;BME280;6743;49.934;9.138;2023-07-20T10:01:10;100282.78;;;21.46;100.00
13348;BME280;6743;49.934;9.138;2023-07-20T10:03:39;100291.00;;;21.51;100.00
13348;BME280;6743;49.934;9.138;2023-07-20T10:06:11;100266.38;;;21.47;100.00
13348;BME280;6743;49.934;9.138;2023-07-20T10:08:39;100277.75;;;21.61;100.00
13348;BME280;6743;49.934;9.138;2023-07-20T10:11:07;100274.19;;;21.72;100.00
13348;BME280;6743;49.934;9.138;2023-07-20T10:13:37;100286.62;;;21.85;100.00
13348;BME280;6743;49.934;9.138;2023-07-20T10:16:10;100282.62;;;21.87;100.00
13348;BME280;6743;49.934;9.138;2023-07-20T10:18:41;100275.56;;;21.86;98.31
13348;BME280;6743;49.934;9.138;2023-07-20T10:21:17;100269.12;;;21.87;94.72
13348;BME280;6743;49.934;9.138;2023-07-20T10:23:43;100267.22;;;21.99;100.00
13348;BME280;6743;49.934;9.138;2023-07-20T10:26:09;100276.97;;;22.12;100.00
13348;BME280;6743;49.934;9.138;2023-07-20T10:28:36;100273.31;;;22.18;94.79
13348;BME280;6743;49.934;9.138;2023-07-20T10:31:02;100268.81;;;22.24;92.79
13348;BME280;6743;49.934;9.138;2023-07-20T10:33:28;100275.88;;;22.25;86.40
13348;BME280;6743;49.934;9.138;2023-07-20T10:35:55;100264.69;;;22.33;90.51
13348;BME280;6743;49.934;9.138;2023-07-20T10:38:40;100270.91;;;22.33;89.36
13348;BME280;6743;49.934;9.138;2023-07-20T10:41:16;100262.38;;;22.42;95.56
13348;BME280;6743;49.934;9.138;2023-07-20T10:43:42;100255.06;;;22.54;100.00
13348;BME280;6743;49.934;9.138;2023-07-20T10:46:11;100253.44;;;22.69;100.00
13348;BME280;6743;49.934;9.138;2023-07-20T10:49:00;100253.28;;;22.76;95.12
13348;BME280;6743;49.934;9.138;2023-07-20T10:51:27;100241.19;;;22.78;89.54
13348;BME280;6743;49.934;9.138;2023-07-20T10:53:54;100231.19;;;22.79;100.00
13348;BME280;6743;49.934;9.138;2023-07-20T10:56:26;100240.09;;;22.96;98.38
13348;BME280;6743;49.934;9.138;2023-07-20T10:58:56;100232.66;;;23.03;91.48
13348;BME280;6743;49.934;9.138;2023-07-20T11:01:27;100235.75;;;23.12;89.00
13348;BME280;6743;49.934;9.138;2023-07-20T11:03:57;100239.22;;;23.07;83.09
13348;BME280;6743;49.934;9.138;2023-07-20T11:06:33;100231.03;;;23.02;81.48
13348;BME280;6743;49.934;9.138;2023-07-20T11:09:07;100238.16;;;23.08;82.05
13348;BME280;6743;49.934;9.138;2023-07-20T11:11:37;100238.62;;;23.05;81.33
13348;BME280;6743;49.934;9.138;2023-07-20T11:14:05;100236.69;;;23.01;79.63
13348;BME280;6743;49.934;9.138;2023-07-20T11:16:33;100228.62;;;23.06;82.87
13348;BME280;6743;49.934;9.138;2023-07-20T11:19:00;100242.22;;;23.11;78.88
13348;BME280;6743;49.934;9.138;2023-07-20T11:21:26;100231.25;;;23.17;75.81
13348;BME280;6743;49.934;9.138;2023-07-20T11:23:52;100231.00;;;23.19;75.05
13348;BME280;6743;49.934;9.138;2023-07-20T11:26:19;100229.03;;;23.14;74.70
13348;BME280;6743;49.934;9.138;2023-07-20T11:28:48;100237.41;;;23.13;76.01
13348;BME280;6743;49.934;9.138;2023-07-20T11:31:14;100227.31;;;22.92;72.53
13348;BME280;6743;49.934;9.138;2023-07-20T11:33:41;100231.09;;;22.91;74.50
13348;BME280;6743;49.934;9.138;2023-07-20T11:36:08;100224.38;;;22.76;73.38
13348;BME280;6743;49.934;9.138;2023-07-20T11:38:34;100234.94;;;22.78;76.20
13348;BME280;6743;49.934;9.138;2023-07-20T11:41:02;100219.91;;;22.70;78.09
13348;BME280;6743;49.934;9.138;2023-07-20T11:43:29;100227.59;;;22.73;78.72
13348;BME280;6743;49.934;9.138;2023-07-20T11:45:56;100230.16;;;22.68;78.87
13348;BME280;6743;49.934;9.138;2023-07-20T11:48:22;100229.84;;;22.65;78.36
13348;BME280;6743;49.934;9.138;2023-07-20T11:50:48;100233.16;;;22.55;77.37
13348;BME280;6743;49.934;9.138;2023-07-20T11:53:15;100232.69;;;22.58;79.15
13348;BME280;6743;49.934;9.138;2023-07-20T11:55:41;100224.81;;;22.57;77.96
13348;BME280;6743;49.934;9.138;2023-07-20T11:58:08;100223.19;;;22.56;78.64
13348;BME280;6743;49.934;9.138;2023-07-20T12:00:38;100228.53;;;22.67;78.38
13348;BME280;6743;49.934;9.138;2023-07-20T12:03:06;100225.09;;;22.72;77.41
13348;BME280;6743;49.934;9.138;2023-07-20T12:05:32;100224.38;;;22.76;77.48
13348;BME280;6743;49.934;9.138;2023-07-20T12:07:58;100221.50;;;22.83;77.61
13348;BME280;6743;49.934;9.138;2023-07-20T12:10:25;100219.22;;;22.92;77.45
13348;BME280;6743;49.934;9.138;2023-07-20T12:12:52;100215.59;;;23.03;75.21
13348;BME280;6743;49.934;9.138;2023-07-20T12:15:21;100218.47;;;23.13;76.59
13348;BME280;6743;49.934;9.138;2023-07-20T12:17:51;100210.81;;;23.27;81.16
13348;BME280;6743;49.934;9.138;2023-07-20T12:20:25;100209.16;;;23.42;80.85
13348;BME280;6743;49.934;9.138;2023-07-20T12:22:51;100208.81;;;23.55;78.01
13348;BME280;6743;49.934;9.138;2023-07-20T12:25:17;100203.22;;;23.62;74.58
13348;BME280;6743;49.934;9.138;2023-07-20T12:27:45;100191.59;;;23.67;78.53
13348;BME280;6743;49.934;9.138;2023-07-20T12:30:12;100197.72;;;23.79;72.79
13348;BME280;6743;49.934;9.138;2023-07-20T12:32:39;100192.13;;;23.85;73.22
13348;BME280;6743;49.934;9.138;2023-07-20T12:35:06;100194.06;;;23.90;73.48
13348;BME280;6743;49.934;9.138;2023-07-20T12:37:32;100176.41;;;23.87;73.52
13348;BME280;6743;49.934;9.138;2023-07-20T12:39:58;100193.03;;;23.96;72.10
13348;BME280;6743;49.934;9.138;2023-07-20T12:42:24;100169.94;;;23.88;71.51
13348;BME280;6743;49.934;9.138;2023-07-20T12:44:50;100171.94;;;23.98;71.99
13348;BME280;6743;49.934;9.138;2023-07-20T12:47:16;100168.41;;;24.19;74.49
13348;BME280;6743;49.934;9.138;2023-07-20T12:49:42;100173.34;;;24.27;68.88
13348;BME280;6743;49.934;9.138;2023-07-20T12:52:11;100181.62;;;24.43;67.70
13348;BME280;6743;49.934;9.138;2023-07-20T12:54:37;100152.97;;;24.52;68.91